Time;durP1;ratioP1;P1;durP2;ratioP2;P2;SDS_P1;SDS_P2;PMS_P1;PMS_P2;Temp;Humidity;BMP_temperature;BMP_pressure;BME280_temperature;BME280_humidity;BME280_pressure;Samples;Min_cycle;Max_cycle;Signal;HPM_P1;HPM_P2
2023/12/09 00:00:58;;;;;;;5.82;5.18;;;5.10;91.80;;;;;;6278324;22;20224;-73
2023/12/09 00:03:25;;;;;;;5.18;4.20;;;5.10;91.80;;;;;;6277441;22;20200;-73
2023/12/09 00:05:52;;;;;;;5.85;4.93;;;5.20;91.90;;;;;;6277525;22;20169;-72
2023/12/09 00:08:19;;;;;;;7.03;5.20;;;5.20;91.80;;;;;;6278073;22;20245;-73
2023/12/09 00:10:46;;;;;;;6.05;4.65;;;5.10;91.70;;;;;;6277877;22;20185;-72
2023/12/09 00:13:13;;;;;;;5.72;4.35;;;5.10;91.70;;;;;;6277624;22;20212;-73
2023/12/09 00:15:40;;;;;;;7.70;4.53;;;5.20;91.90;;;;;;6277461;22;20613;-73
2023/12/09 00:18:09;;;;;;;4.53;3.35;;;5.20;92.00;;;;;;6278009;22;20193;-73
2023/12/09 00:20:36;;;;;;;5.72;4.35;;;5.20;92.10;;;;;;6277973;22;20169;-72
2023/12/09 00:23:03;;;;;;;4.22;3.60;;;5.20;92.30;;;;;;6277129;22;20197;-73
2023/12/09 00:25:29;;;;;;;4.75;3.55;;;5.20;92.80;;;;;;6278034;22;20249;-72
2023/12/09 00:27:56;;;;;;;6.38;4.25;;;5.30;93.20;;;;;;6277567;22;20646;-74
2023/12/09 00:30:23;;;;;;;4.93;2.90;;;5.30;93.20;;;;;;6277370;22;20216;-73
2023/12/09 00:32:50;;;;;;;5.20;3.50;;;5.30;93.10;;;;;;6277819;22;20197;-73
2023/12/09 00:35:19;;;;;;;4.25;3.00;;;5.30;93.50;;;;;;6277102;22;20245;-72
2023/12/09 00:37:45;;;;;;;5.90;3.80;;;5.30;93.60;;;;;;6277955;22;20540;-73
2023/12/09 00:40:13;;;;;;;9.23;3.95;;;5.30;93.70;;;;;;6277386;22;20695;-73
2023/12/09 00:42:40;;;;;;;6.18;4.25;;;5.40;93.90;;;;;;6277852;22;20240;-73
2023/12/09 00:45:08;;;;;;;5.40;4.20;;;5.40;94.00;;;;;;6276863;22;20574;-73
2023/12/09 00:47:34;;;;;;;7.07;4.43;;;5.40;94.00;;;;;;6277823;22;20193;-72
2023/12/09 00:50:02;;;;;;;6.47;4.32;;;5.40;94.10;;;;;;6277272;22;20240;-73
2023/12/09 00:52:30;;;;;;;4.45;3.25;;;5.40;94.20;;;;;;6277696;22;20512;-72
2023/12/09 00:54:57;;;;;;;5.82;3.80;;;5.50;94.10;;;;;;6277266;22;20572;-73
2023/12/09 00:57:24;;;;;;;7.80;3.60;;;5.50;94.10;;;;;;6277273;22;20255;-73
2023/12/09 00:59:51;;;;;;;5.93;3.15;;;5.50;93.90;;;;;;6277369;22;20223;-73
2023/12/09 01:02:18;;;;;;;4.45;3.20;;;5.50;93.70;;;;;;6277228;22;20209;-73
2023/12/09 01:04:45;;;;;;;3.88;2.90;;;5.60;93.60;;;;;;6276224;22;20244;-73
2023/12/09 01:07:12;;;;;;;3.97;2.80;;;5.60;93.50;;;;;;6277123;22;20197;-73
2023/12/09 01:09:40;;;;;;;5.00;3.45;;;5.60;93.50;;;;;;6277282;22;20162;-73
2023/12/09 01:12:07;;;;;;;4.15;3.05;;;5.60;93.40;;;;;;6277039;22;20224;-73
2023/12/09 01:14:34;;;;;;;4.00;2.95;;;5.60;93.10;;;;;;6277115;22;20192;-73
2023/12/09 01:17:01;;;;;;;5.65;3.75;;;5.60;93.00;;;;;;6277404;22;20240;-73
2023/12/09 01:19:28;;;;;;;5.50;3.20;;;5.60;92.90;;;;;;6277422;22;20173;-72
2023/12/09 01:21:55;;;;;;;4.82;3.05;;;5.60;92.80;;;;;;6277390;22;20253;-72
2023/12/09 01:24:22;;;;;;;4.18;2.78;;;5.60;92.80;;;;;;6277117;22;20248;-73
2023/12/09 01:26:50;;;;;;;4.30;3.08;;;5.60;92.80;;;;;;6277235;22;20189;-74
2023/12/09 01:29:17;;;;;;;3.33;2.10;;;5.60;92.80;;;;;;6277371;22;20204;-73
2023/12/09 01:31:44;;;;;;;3.90;2.55;;;5.60;92.90;;;;;;6277224;22;20551;-73
2023/12/09 01:34:11;;;;;;;3.15;1.75;;;5.60;93.00;;;;;;6277086;22;20200;-72
2023/12/09 01:36:38;;;;;;;3.50;1.92;;;5.70;93.20;;;;;;6276649;22;20204;-73
2023/12/09 01:39:05;;;;;;;3.50;1.45;;;5.70;93.30;;;;;;6277271;22;20219;-73
2023/12/09 01:41:31;;;;;;;3.85;1.95;;;5.70;93.60;;;;;;6277307;22;20244;-72
2023/12/09 01:44:00;;;;;;;3.88;1.65;;;5.80;93.80;;;;;;6276444;22;20637;-73
2023/12/09 01:46:27;;;;;;;2.47;1.58;;;5.80;94.00;;;;;;6276879;22;20609;-73
2023/12/09 01:48:53;;;;;;;3.78;1.45;;;5.80;94.20;;;;;;6276537;22;20650;-73
2023/12/09 01:51:21;;;;;;;2.00;1.10;;;5.80;94.30;;;;;;6276989;22;20264;-74
2023/12/09 01:53:48;;;;;;;3.05;1.20;;;5.80;94.50;;;;;;6276377;22;20581;-72
2023/12/09 01:56:17;;;;;;;2.00;1.00;;;5.90;94.70;;;;;;6277082;22;20166;-73
2023/12/09 01:58:44;;;;;;;10.02;1.77;;;6.00;94.90;;;;;;6276687;22;20245;-73
2023/12/09 02:01:14;;;;;;;3.00;1.50;;;6.00;94.80;;;;;;6277131;22;20201;-73
2023/12/09 02:03:41;;;;;;;2.60;1.40;;;6.00;95.00;;;;;;6276794;22;20193;-73
2023/12/09 02:06:09;;;;;;;3.65;1.77;;;6.00;95.00;;;;;;6276937;22;20193;-73
2023/12/09 02:08:36;;;;;;;2.63;1.65;;;6.00;95.00;;;;;;6276730;22;20256;-72
2023/12/09 02:11:17;;;;;;;3.47;1.23;;;6.10;95.00;;;;;;6276368;22;20272;-72
2023/12/09 02:13:56;;;;;;;2.97;1.30;;;6.10;94.90;;;;;;6276421;22;20154;-73
2023/12/09 02:16:30;;;;;;;2.30;1.30;;;6.10;94.70;;;;;;6276313;22;20189;-73
2023/12/09 02:18:58;;;;;;;2.60;1.45;;;6.10;94.90;;;;;;6276424;22;20192;-73
2023/12/09 02:21:25;;;;;;;2.58;1.23;;;6.10;94.70;;;;;;6276821;22;20188;-73
2023/12/09 02:23:53;;;;;;;2.40;1.45;;;6.10;94.50;;;;;;6276068;22;20632;-73
2023/12/09 02:26:25;;;;;;;2.50;1.30;;;6.10;94.40;;;;;;6276936;22;20261;-72
2023/12/09 02:29:00;;;;;;;2.53;1.50;;;6.10;94.20;;;;;;6277141;22;20248;-72
2023/12/09 02:31:31;;;;;;;2.35;1.35;;;6.10;94.00;;;;;;6276749;22;20231;-73
2023/12/09 02:34:02;;;;;;;3.50;1.38;;;6.10;93.90;;;;;;6276780;22;20149;-72
2023/12/09 02:36:30;;;;;;;6.28;1.83;;;6.10;93.90;;;;;;6276929;22;20501;-72
2023/12/09 02:39:00;;;;;;;2.55;1.60;;;6.10;93.80;;;;;;6276892;22;20240;-72
2023/12/09 02:41:29;;;;;;;3.50;1.75;;;6.10;93.70;;;;;;6276099;22;20471;-73
2023/12/09 02:43:57;;;;;;;4.43;1.50;;;6.10;93.50;;;;;;6276526;22;20188;-72
2023/12/09 02:46:24;;;;;;;2.30;1.50;;;6.10;93.50;;;;;;6276607;22;20488;-72
2023/12/09 02:48:51;;;;;;;5.07;1.70;;;6.10;93.50;;;;;;6276382;22;20172;-72
2023/12/09 02:51:18;;;;;;;3.85;1.95;;;6.10;93.50;;;;;;6276539;22;20264;-72
2023/12/09 02:53:45;;;;;;;6.20;2.10;;;6.10;93.50;;;;;;6275853;22;20201;-72
2023/12/09 02:56:13;;;;;;;5.10;1.70;;;6.10;93.30;;;;;;6276297;22;20169;-73
2023/12/09 02:58:40;;;;;;;3.60;1.80;;;6.10;93.30;;;;;;6276808;22;20551;-73
2023/12/09 03:01:07;;;;;;;3.15;1.95;;;6.10;93.30;;;;;;6276472;22;20166;-75
2023/12/09 03:03:34;;;;;;;3.85;1.95;;;6.10;92.90;;;;;;6276660;22;20197;-72
2023/12/09 03:06:01;;;;;;;3.00;1.75;;;6.00;92.50;;;;;;6276605;22;20166;-72
2023/12/09 03:08:28;;;;;;;3.22;1.80;;;6.00;92.50;;;;;;6276690;22;20454;-73
2023/12/09 03:10:55;;;;;;;3.53;1.77;;;6.00;92.50;;;;;;6276260;22;20244;-73
2023/12/09 03:13:26;;;;;;;4.85;2.33;;;5.90;92.50;;;;;;6276458;22;20193;-72
2023/12/09 03:15:53;;;;;;;4.55;2.50;;;6.00;92.50;;;;;;6276270;22;20202;-73
2023/12/09 03:18:19;;;;;;;4.57;1.80;;;5.90;92.20;;;;;;6276673;22;20244;-73
2023/12/09 03:20:46;;;;;;;5.93;2.08;;;5.90;92.30;;;;;;6276449;22;20197;-73
2023/12/09 03:23:14;;;;;;;4.45;2.10;;;5.90;92.30;;;;;;6276194;22;20248;-73
2023/12/09 03:25:41;;;;;;;2.90;1.95;;;5.80;92.60;;;;;;6276532;22;20200;-73
2023/12/09 03:28:07;;;;;;;3.00;2.00;;;5.80;92.70;;;;;;6276365;22;20210;-73
2023/12/09 03:30:36;;;;;;;5.10;2.30;;;5.80;92.60;;;;;;6277752;22;20241;-73
2023/12/09 03:33:03;;;;;;;3.53;1.40;;;5.80;92.60;;;;;;6278378;22;20572;-72
2023/12/09 03:35:30;;;;;;;4.00;1.95;;;5.80;92.30;;;;;;6278611;22;20517;-72
2023/12/09 03:37:57;;;;;;;4.13;1.95;;;5.80;92.40;;;;;;6278024;22;20197;-72
2023/12/09 03:40:24;;;;;;;3.70;2.83;;;5.70;92.70;;;;;;6278123;22;20227;-73
2023/12/09 03:42:50;;;;;;;3.55;1.75;;;5.70;92.90;;;;;;6278364;22;20223;-73
2023/12/09 03:45:17;;;;;;;4.47;2.10;;;5.80;93.20;;;;;;6278177;22;20189;-73
2023/12/09 03:47:46;;;;;;;3.30;2.00;;;5.70;93.20;;;;;;6278165;22;20197;-73
2023/12/09 03:50:13;;;;;;;3.83;2.45;;;5.80;93.20;;;;;;6277941;22;20197;-73
2023/12/09 03:52:40;;;;;;;5.35;3.70;;;5.70;93.10;;;;;;6278118;22;20268;-72
2023/12/09 03:55:07;;;;;;;7.85;4.97;;;5.70;93.50;;;;;;6277830;22;20193;-73
2023/12/09 03:57:34;;;;;;;7.10;3.90;;;5.70;93.80;;;;;;6278019;22;20161;-72
2023/12/09 04:00:03;;;;;;;7.18;3.90;;;5.70;94.00;;;;;;6277754;22;20539;-73
2023/12/09 04:02:30;;;;;;;5.78;2.80;;;5.70;93.80;;;;;;6278199;22;20200;-73
2023/12/09 04:04:59;;;;;;;3.63;2.05;;;5.80;93.60;;;;;;6277667;22;20196;-72
2023/12/09 04:07:25;;;;;;;5.47;3.28;;;5.80;93.50;;;;;;6277678;22;20203;-72
2023/12/09 04:09:53;;;;;;;6.53;2.45;;;5.80;93.40;;;;;;6278152;22;20196;-72
2023/12/09 04:12:20;;;;;;;4.55;1.95;;;5.80;93.50;;;;;;6277634;22;20246;-73
2023/12/09 04:14:47;;;;;;;3.10;1.83;;;5.80;93.80;;;;;;6278052;22;20166;-72
2023/12/09 04:17:14;;;;;;;7.20;2.28;;;5.70;94.00;;;;;;6277821;22;20268;-73
2023/12/09 04:19:41;;;;;;;4.50;2.08;;;5.70;94.70;;;;;;6278102;22;20248;-73
2023/12/09 04:22:09;;;;;;;2.75;1.13;;;5.60;94.90;;;;;;6277620;22;20212;-73
2023/12/09 04:24:36;;;;;;;7.32;1.95;;;5.70;95.20;;;;;;6277939;22;20197;-72
2023/12/09 04:27:04;;;;;;;4.72;1.95;;;5.80;95.30;;;;;;6277648;22;20205;-73
2023/12/09 04:29:30;;;;;;;3.25;1.88;;;5.80;95.00;;;;;;6277653;22;20601;-73
2023/12/09 04:31:57;;;;;;;5.30;2.55;;;5.80;94.80;;;;;;6277162;22;20224;-73
2023/12/09 04:34:24;;;;;;;4.85;2.70;;;5.80;94.80;;;;;;6277501;22;20635;-73
2023/12/09 04:36:51;;;;;;;5.30;2.90;;;5.80;94.40;;;;;;6277834;22;20245;-73
2023/12/09 04:39:19;;;;;;;3.10;2.03;;;5.80;94.30;;;;;;6277584;22;20208;-73
2023/12/09 04:41:47;;;;;;;4.63;1.88;;;5.80;94.40;;;;;;6277355;22;20692;-73
2023/12/09 04:44:14;;;;;;;4.15;1.90;;;5.70;94.00;;;;;;6277022;22;20276;-74
2023/12/09 04:46:41;;;;;;;2.60;1.70;;;5.60;94.10;;;;;;6277627;22;20215;-73
2023/12/09 04:49:08;;;;;;;5.22;1.48;;;5.60;94.20;;;;;;6277691;22;20192;-73
2023/12/09 04:51:35;;;;;;;2.80;2.00;;;5.60;94.50;;;;;;6276977;22;20166;-73
2023/12/09 04:54:02;;;;;;;2.95;1.65;;;5.60;94.50;;;;;;6277464;22;20200;-73
2023/12/09 04:56:31;;;;;;;2.78;1.67;;;5.50;94.70;;;;;;6277803;22;20166;-73
2023/12/09 04:58:57;;;;;;;5.25;1.42;;;5.50;94.00;;;;;;6277542;22;20188;-73
2023/12/09 05:01:24;;;;;;;4.80;1.90;;;5.50;93.70;;;;;;6277316;22;20238;-72
2023/12/09 05:03:51;;;;;;;2.15;1.25;;;5.50;93.30;;;;;;6277171;22;20204;-72
2023/12/09 05:06:18;;;;;;;2.53;1.30;;;5.40;93.10;;;;;;6277505;22;20193;-73
2023/12/09 05:08:45;;;;;;;4.75;1.48;;;5.40;93.00;;;;;;6277096;22;20240;-72
2023/12/09 05:11:12;;;;;;;4.30;1.80;;;5.40;93.00;;;;;;6277251;22;20257;-73
2023/12/09 05:13:40;;;;;;;3.70;1.90;;;5.40;92.80;;;;;;6276967;22;20185;-73
2023/12/09 05:16:07;;;;;;;3.95;1.90;;;5.30;92.90;;;;;;6277106;22;20621;-73
2023/12/09 05:18:34;;;;;;;2.45;1.48;;;5.30;92.70;;;;;;6276991;22;20662;-73
2023/12/09 05:21:01;;;;;;;2.65;1.80;;;5.30;92.60;;;;;;6277153;22;20168;-73
2023/12/09 05:23:28;;;;;;;3.33;1.60;;;5.30;92.70;;;;;;6277178;22;20248;-73
2023/12/09 05:25:55;;;;;;;4.40;2.20;;;5.20;92.70;;;;;;6276999;22;20193;-73
2023/12/09 05:28:22;;;;;;;4.72;2.60;;;5.20;93.00;;;;;;6277435;22;20161;-72
2023/12/09 05:30:51;;;;;;;3.75;2.28;;;5.20;93.20;;;;;;6277045;22;20162;-73
2023/12/09 05:33:18;;;;;;;5.90;3.55;;;5.20;93.20;;;;;;6276831;22;20235;-73
2023/12/09 05:35:45;;;;;;;3.65;2.13;;;5.10;93.20;;;;;;6277301;22;20321;-73
2023/12/09 05:38:12;;;;;;;4.20;2.78;;;5.10;93.60;;;;;;6277298;22;20624;-73
2023/12/09 05:40:39;;;;;;;3.80;2.30;;;5.10;93.50;;;;;;6276857;22;20663;-73
2023/12/09 05:43:06;;;;;;;6.72;3.40;;;5.00;93.60;;;;;;6276588;22;20193;-73
2023/12/09 05:45:33;;;;;;;4.93;3.35;;;4.90;94.10;;;;;;6276402;22;20228;-73
2023/12/09 05:48:02;;;;;;;6.93;4.00;;;4.90;94.50;;;;;;6277055;22;20241;-73
2023/12/09 05:50:34;;;;;;;7.82;3.50;;;4.90;94.80;;;;;;6277328;22;20162;-73
2023/12/09 05:53:01;;;;;;;6.50;3.03;;;4.90;95.00;;;;;;6276670;22;20243;-73
2023/12/09 05:55:28;;;;;;;4.88;2.53;;;4.90;95.20;;;;;;6276659;22;20170;-73
2023/12/09 05:57:55;;;;;;;2.80;2.17;;;4.90;95.20;;;;;;6277044;22;20170;-72
2023/12/09 06:00:22;;;;;;;4.53;2.30;;;5.00;95.20;;;;;;6276391;22;20201;-73
2023/12/09 06:02:48;;;;;;;12.60;7.85;;;5.00;95.10;;;;;;6276292;22;20640;-73
2023/12/09 06:05:17;;;;;;;9.18;5.25;;;5.00;94.90;;;;;;6276825;22;20541;-72
2023/12/09 06:07:44;;;;;;;39.72;20.73;;;5.00;94.80;;;;;;6276641;22;20671;-73
2023/12/09 06:10:11;;;;;;;33.65;13.82;;;5.00;94.50;;;;;;6276575;22;20244;-72
2023/12/09 06:12:38;;;;;;;6.32;3.70;;;5.00;94.50;;;;;;6276340;22;20260;-72
2023/12/09 06:15:06;;;;;;;4.00;2.70;;;5.10;94.30;;;;;;6276861;22;20545;-73
2023/12/09 06:17:33;;;;;;;7.57;5.55;;;5.10;93.60;;;;;;6277289;22;20196;-73
2023/12/09 06:20:01;;;;;;;10.70;8.05;;;4.90;93.50;;;;;;6276161;22;20201;-72
2023/12/09 06:22:30;;;;;;;16.05;11.02;;;4.90;93.60;;;;;;6276662;22;20333;-73
2023/12/09 06:24:57;;;;;;;23.98;15.95;;;4.70;93.90;;;;;;6276831;22;20240;-72
2023/12/09 06:27:25;;;;;;;19.85;14.30;;;4.70;94.40;;;;;;6276922;22;20551;-72
2023/12/09 06:29:52;;;;;;;14.93;11.50;;;4.70;94.70;;;;;;6277062;22;20162;-72
2023/12/09 06:32:19;;;;;;;14.82;11.82;;;4.70;94.90;;;;;;6273606;22;20267;-72
2023/12/09 06:34:46;;;;;;;11.68;8.10;;;4.70;95.00;;;;;;6275723;22;20248;-72
2023/12/09 06:37:13;;;;;;;10.73;7.47;;;4.80;95.20;;;;;;6276227;22;20189;-72
2023/12/09 06:39:41;;;;;;;17.17;12.23;;;4.80;95.20;;;;;;6275445;22;20204;-74
2023/12/09 06:42:08;;;;;;;11.63;9.48;;;4.90;95.10;;;;;;6275287;22;20244;-73
2023/12/09 06:44:35;;;;;;;13.23;9.80;;;4.90;94.60;;;;;;6275095;22;20275;-72
2023/12/09 06:47:02;;;;;;;4.80;3.80;;;4.90;94.60;;;;;;6275965;22;20201;-73
2023/12/09 06:49:29;;;;;;;48.17;24.48;;;5.00;94.60;;;;;;6275606;22;20617;-73
2023/12/09 06:51:56;;;;;;;21.10;13.05;;;4.90;94.20;;;;;;6276069;22;20169;-73
2023/12/09 06:54:23;;;;;;;16.10;7.95;;;4.90;94.30;;;;;;6275518;22;20229;-73
2023/12/09 06:56:52;;;;;;;14.77;8.20;;;4.90;94.50;;;;;;6275884;22;20241;-72
2023/12/09 06:59:19;;;;;;;29.77;16.15;;;4.90;94.70;;;;;;6275579;22;20248;-72
2023/12/09 07:01:49;;;;;;;12.07;6.38;;;4.90;94.70;;;;;;6275488;22;20193;-73
2023/12/09 07:04:16;;;;;;;7.30;3.20;;;4.90;94.30;;;;;;6277306;22;20173;-73
2023/12/09 07:06:43;;;;;;;45.35;26.40;;;4.90;94.20;;;;;;6277150;22;20196;-73
2023/12/09 07:09:10;;;;;;;22.15;13.88;;;4.90;94.20;;;;;;6277782;22;20235;-73
2023/12/09 07:11:37;;;;;;;9.77;7.13;;;4.90;94.50;;;;;;6277781;22;20211;-73
2023/12/09 07:14:06;;;;;;;11.95;9.88;;;4.90;94.70;;;;;;6277634;22;20220;-73
2023/12/09 07:16:32;;;;;;;5.85;4.65;;;4.90;94.70;;;;;;6276779;22;20244;-73
2023/12/09 07:18:59;;;;;;;3.47;2.55;;;4.90;94.70;;;;;;6277363;22;20248;-73
2023/12/09 07:21:27;;;;;;;5.40;2.95;;;5.00;94.50;;;;;;6277694;22;20500;-72
2023/12/09 07:23:55;;;;;;;6.88;3.00;;;5.00;94.60;;;;;;6277225;22;20483;-73
2023/12/09 07:26:22;;;;;;;4.20;3.17;;;5.10;94.40;;;;;;6277263;22;20166;-72
2023/12/09 07:28:49;;;;;;;5.28;2.83;;;5.10;94.20;;;;;;6277563;22;20460;-72
2023/12/09 07:31:17;;;;;;;10.73;5.38;;;5.10;94.30;;;;;;6277088;22;20648;-72
2023/12/09 07:33:44;;;;;;;4.20;3.45;;;5.20;94.30;;;;;;6277044;22;20325;-74
2023/12/09 07:36:11;;;;;;;17.95;10.60;;;5.20;94.40;;;;;;6277039;22;20221;-72
2023/12/09 07:38:38;;;;;;;21.80;11.48;;;5.30;94.70;;;;;;6276629;22;20162;-73
2023/12/09 07:41:05;;;;;;;9.93;6.57;;;5.30;94.90;;;;;;6277448;22;20253;-72
2023/12/09 07:43:32;;;;;;;10.57;6.30;;;5.50;95.40;;;;;;6276802;22;20683;-74
2023/12/09 07:45:59;;;;;;;10.80;6.25;;;5.60;95.40;;;;;;6277663;22;20186;-73
2023/12/09 07:48:27;;;;;;;25.85;13.40;;;5.80;95.20;;;;;;6277479;22;20193;-73
2023/12/09 07:50:54;;;;;;;13.77;10.45;;;6.00;95.00;;;;;;6276958;22;20181;-73
2023/12/09 07:53:21;;;;;;;8.27;5.03;;;6.10;94.50;;;;;;6276672;22;20273;-73
2023/12/09 07:55:48;;;;;;;6.35;5.50;;;6.10;94.10;;;;;;6276912;22;20249;-73
2023/12/09 07:58:15;;;;;;;4.75;3.00;;;6.20;93.40;;;;;;6277007;22;20280;-73
2023/12/09 08:00:42;;;;;;;7.55;2.95;;;6.30;92.90;;;;;;6277081;22;20170;-73
2023/12/09 08:03:09;;;;;;;6.95;5.50;;;6.30;92.90;;;;;;6277027;22;20192;-73
2023/12/09 08:05:38;;;;;;;8.18;4.68;;;6.30;92.40;;;;;;6277155;22;20545;-73
2023/12/09 08:08:05;;;;;;;7.40;5.57;;;6.20;92.20;;;;;;6276793;22;20166;-73
2023/12/09 08:10:32;;;;;;;7.28;6.03;;;6.20;92.20;;;;;;6276923;22;20477;-73
2023/12/09 08:12:59;;;;;;;11.98;7.03;;;6.10;91.90;;;;;;6277183;22;20265;-73
2023/12/09 08:15:26;;;;;;;7.40;5.80;;;6.10;92.20;;;;;;6276434;22;20573;-73
2023/12/09 08:17:53;;;;;;;4.55;3.38;;;6.20;92.30;;;;;;6274781;22;20193;-73
2023/12/09 08:20:20;;;;;;;3.88;2.53;;;6.20;92.10;;;;;;6277023;22;20240;-73
2023/12/09 08:22:48;;;;;;;4.65;2.78;;;6.30;92.40;;;;;;6276848;22;20223;-73
2023/12/09 08:25:15;;;;;;;4.97;2.45;;;6.30;92.30;;;;;;6276563;22;20169;-73
2023/12/09 08:27:42;;;;;;;3.83;2.45;;;6.40;92.70;;;;;;6277297;22;20169;-73
2023/12/09 08:30:12;;;;;;;3.33;2.28;;;6.50;92.90;;;;;;6277202;22;20165;-73
2023/12/09 08:32:41;;;;;;;4.78;3.03;;;6.60;92.80;;;;;;6276673;22;20516;-73
2023/12/09 08:35:09;;;;;;;6.53;3.05;;;6.80;92.70;;;;;;6277641;22;20184;-73
2023/12/09 08:37:36;;;;;;;5.55;3.50;;;7.00;92.60;;;;;;6277202;22;20162;-73
2023/12/09 08:40:09;;;;;;;4.05;2.50;;;7.30;91.80;;;;;;6277812;22;20197;-74
2023/12/09 08:42:38;;;;;;;4.00;2.40;;;7.70;91.30;;;;;;6277469;22;20522;-73
2023/12/09 08:45:06;;;;;;;4.88;2.83;;;8.10;90.30;;;;;;6277327;22;20220;-74
2023/12/09 08:47:33;;;;;;;4.18;2.58;;;8.50;88.30;;;;;;6272788;22;20651;-74
2023/12/09 08:50:05;;;;;;;3.83;2.92;;;8.80;86.60;;;;;;6276758;22;20245;-73
2023/12/09 08:52:32;;;;;;;4.05;2.95;;;8.90;83.70;;;;;;6277104;22;20161;-73
2023/12/09 08:54:59;;;;;;;4.05;3.45;;;8.90;81.80;;;;;;6276602;22;20271;-73
2023/12/09 08:57:28;;;;;;;3.88;2.67;;;8.70;80.50;;;;;;6276890;22;20200;-73
2023/12/09 08:59:55;;;;;;;3.90;2.75;;;8.70;80.30;;;;;;6272608;22;20172;-73
2023/12/09 09:02:23;;;;;;;4.55;3.00;;;8.60;81.40;;;;;;6276974;22;20193;-73
2023/12/09 09:04:50;;;;;;;7.97;5.10;;;8.80;82.80;;;;;;6276124;22;20592;-73
2023/12/09 09:07:17;;;;;;;66.40;33.38;;;9.20;82.80;;;;;;6277352;22;20161;-73
2023/12/09 09:09:44;;;;;;;31.98;17.60;;;9.50;79.30;;;;;;6277365;22;20498;-73
2023/12/09 09:12:10;;;;;;;23.05;11.60;;;9.70;79.60;;;;;;6276864;22;20650;-73
2023/12/09 09:14:39;;;;;;;15.82;9.00;;;9.70;78.80;;;;;;6277060;22;20260;-73
2023/12/09 09:17:05;;;;;;;26.30;16.05;;;9.80;78.10;;;;;;6277395;22;20248;-73
2023/12/09 09:19:32;;;;;;;9.13;4.85;;;10.00;75.30;;;;;;6276864;22;20201;-73
2023/12/09 09:21:59;;;;;;;3.90;3.00;;;10.10;72.70;;;;;;6276843;22;20188;-73
2023/12/09 09:24:26;;;;;;;4.03;2.92;;;10.10;71.10;;;;;;6277210;22;20244;-73
2023/12/09 09:26:53;;;;;;;3.85;2.35;;;10.30;71.00;;;;;;6276671;22;20244;-73
2023/12/09 09:29:20;;;;;;;4.70;2.40;;;10.60;70.70;;;;;;6276671;22;20173;-73
2023/12/09 09:31:48;;;;;;;5.85;4.25;;;10.80;68.10;;;;;;6277022;22;20192;-73
2023/12/09 09:34:15;;;;;;;3.85;2.70;;;10.90;67.40;;;;;;6277013;22;20576;-73
2023/12/09 09:36:42;;;;;;;9.43;5.27;;;10.90;66.10;;;;;;6276973;22;20207;-73
2023/12/09 09:39:09;;;;;;;17.65;11.32;;;11.00;64.90;;;;;;6277093;22;20458;-73
2023/12/09 09:41:45;;;;;;;8.00;5.40;;;10.80;65.90;;;;;;6276616;22;20169;-73
2023/12/09 09:44:14;;;;;;;6.43;4.43;;;10.70;65.50;;;;;;6276819;22;20420;-73
2023/12/09 09:46:42;;;;;;;5.10;2.80;;;10.60;67.50;;;;;;6276676;22;20842;-73
2023/12/09 09:49:12;;;;;;;5.00;3.50;;;10.80;66.30;;;;;;6276597;22;20427;-74
2023/12/09 09:51:45;;;;;;;3.30;2.27;;;11.00;66.20;;;;;;6276500;22;20154;-73
2023/12/09 09:54:16;;;;;;;4.40;2.38;;;11.30;64.60;;;;;;6276671;22;20420;-73
2023/12/09 09:56:43;;;;;;;4.33;3.00;;;11.50;62.60;;;;;;6277217;22;20457;-73
2023/12/09 09:59:11;;;;;;;7.53;3.03;;;11.80;63.40;;;;;;6276963;22;20431;-73
2023/12/09 10:01:38;;;;;;;7.60;4.97;;;12.10;62.70;;;;;;6276498;22;20471;-73
2023/12/09 10:04:05;;;;;;;7.33;4.20;;;12.50;60.20;;;;;;6276924;22;20723;-73
2023/12/09 10:06:35;;;;;;;6.70;4.13;;;12.90;59.80;;;;;;6277106;22;20461;-73
2023/12/09 10:09:02;;;;;;;7.13;4.57;;;13.10;58.10;;;;;;6276438;22;20424;-73
2023/12/09 10:11:29;;;;;;;8.13;5.13;;;13.30;57.00;;;;;;6276975;22;20411;-73
2023/12/09 10:13:56;;;;;;;12.93;8.97;;;13.60;56.70;;;;;;6277000;22;20435;-73
2023/12/09 10:16:23;;;;;;;11.67;7.60;;;13.60;54.90;;;;;;6276405;22;20973;-73
2023/12/09 10:18:50;;;;;;;15.90;10.07;;;13.50;55.90;;;;;;6276973;22;20473;-73
2023/12/09 10:21:17;;;;;;;18.20;9.73;;;13.70;55.40;;;;;;6276498;22;20392;-73
2023/12/09 10:23:46;;;;;;;7.07;3.63;;;13.80;54.40;;;;;;6276311;22;20427;-74
2023/12/09 10:26:13;;;;;;;10.30;5.80;;;14.00;54.50;;;;;;6276230;22;20392;-73
2023/12/09 10:28:40;;;;;;;18.90;10.60;;;14.30;53.80;;;;;;6276339;22;20941;-73
2023/12/09 10:31:09;;;;;;;18.90;11.60;;;14.30;52.80;;;;;;6276630;22;20401;-74
2023/12/09 10:33:36;;;;;;;9.33;5.33;;;14.10;51.70;;;;;;6276435;22;20452;-73
2023/12/09 10:36:03;;;;;;;11.50;5.90;;;13.80;53.40;;;;;;6276726;22;20387;-73
2023/12/09 10:38:31;;;;;;;5.77;2.63;;;13.80;53.70;;;;;;6276227;22;20399;-73
2023/12/09 10:41:00;;;;;;;3.50;1.87;;;14.10;52.80;;;;;;6276611;22;20391;-73
2023/12/09 10:43:26;;;;;;;5.80;1.87;;;14.40;52.10;;;;;;6276556;22;20504;-73
2023/12/09 10:45:53;;;;;;;4.10;1.97;;;14.70;52.00;;;;;;6276202;22;20447;-73
2023/12/09 10:48:20;;;;;;;3.47;1.47;;;15.00;51.40;;;;;;6276171;22;20471;-74
2023/12/09 10:50:48;;;;;;;2.53;1.23;;;15.20;49.80;;;;;;6276546;22;20434;-74
2023/12/09 10:53:15;;;;;;;3.90;1.10;;;15.00;48.90;;;;;;6276609;22;20441;-73
2023/12/09 10:55:42;;;;;;;3.47;1.10;;;14.80;48.70;;;;;;6276212;22;20427;-74
2023/12/09 10:58:12;;;;;;;7.73;3.73;;;14.60;49.60;;;;;;6276529;22;20442;-73
2023/12/09 11:00:41;;;;;;;6.80;4.23;;;14.30;49.00;;;;;;6276751;22;20695;-73
2023/12/09 11:03:09;;;;;;;4.40;2.40;;;13.90;49.50;;;;;;6275982;22;20392;-73
2023/12/09 11:05:44;;;;;;;4.27;2.10;;;13.60;50.30;;;;;;6276530;22;20434;-74
2023/12/09 11:08:12;;;;;;;3.30;1.70;;;13.30;50.60;;;;;;6276709;22;20387;-74
2023/12/09 11:10:41;;;;;;;2.90;1.83;;;13.00;51.20;;;;;;6276480;22;20474;-73
2023/12/09 11:13:08;;;;;;;4.90;2.53;;;12.80;52.30;;;;;;6276584;22;20392;-73
2023/12/09 11:15:36;;;;;;;3.00;1.63;;;12.60;53.00;;;;;;6276441;22;20459;-73
2023/12/09 11:18:08;;;;;;;3.97;2.37;;;12.70;53.80;;;;;;6276499;22;20395;-73
2023/12/09 11:20:38;;;;;;;3.70;2.50;;;12.80;53.90;;;;;;6276075;22;20392;-73
2023/12/09 11:23:05;;;;;;;2.90;1.60;;;13.00;54.40;;;;;;6276178;22;20422;-74
2023/12/09 11:25:31;;;;;;;3.10;1.73;;;13.10;52.30;;;;;;6276317;22;20400;-73
2023/12/09 11:27:59;;;;;;;2.53;1.37;;;13.00;52.40;;;;;;6276558;22;20490;-73
2023/12/09 11:30:37;;;;;;;3.80;2.00;;;13.00;52.80;;;;;;6276422;22;20402;-73
2023/12/09 11:33:05;;;;;;;3.90;1.73;;;13.20;53.00;;;;;;6276609;22;20408;-74
2023/12/09 11:35:34;;;;;;;3.57;1.83;;;13.40;52.60;;;;;;6276309;22;20463;-73
2023/12/09 11:38:01;;;;;;;2.80;1.50;;;13.40;52.10;;;;;;6276371;22;20412;-73
2023/12/09 11:40:30;;;;;;;3.93;1.93;;;13.40;51.10;;;;;;6276267;22;20750;-73
2023/12/09 11:42:58;;;;;;;2.73;1.57;;;13.20;51.60;;;;;;6275130;22;20717;-73
2023/12/09 11:45:25;;;;;;;3.07;1.90;;;13.00;52.00;;;;;;6275736;22;20455;-73
2023/12/09 11:47:54;;;;;;;3.50;2.07;;;13.00;51.80;;;;;;6275949;22;20392;-73
2023/12/09 11:50:21;;;;;;;5.37;1.90;;;12.80;52.00;;;;;;6277527;22;20407;-73
2023/12/09 11:52:49;;;;;;;4.00;2.20;;;12.70;52.60;;;;;;6277807;22;20471;-73
2023/12/09 11:55:17;;;;;;;4.80;2.00;;;12.70;52.90;;;;;;6278054;22;20478;-73
2023/12/09 11:57:44;;;;;;;4.50;2.20;;;12.60;53.30;;;;;;6278194;22;20467;-73
2023/12/09 12:00:12;;;;;;;5.90;2.10;;;12.60;53.30;;;;;;6277765;22;20896;-73
2023/12/09 12:02:39;;;;;;;4.00;2.27;;;12.50;53.40;;;;;;6278065;22;20419;-73
2023/12/09 12:05:08;;;;;;;3.33;1.90;;;12.40;53.20;;;;;;6278130;22;20467;-73
2023/12/09 12:07:36;;;;;;;4.90;2.50;;;12.30;54.20;;;;;;6277923;22;20743;-73
2023/12/09 12:10:03;;;;;;;3.47;2.20;;;12.30;54.80;;;;;;6277647;22;20944;-73
2023/12/09 12:12:31;;;;;;;3.90;2.40;;;12.30;55.30;;;;;;6277617;22;20424;-73
2023/12/09 12:14:58;;;;;;;3.70;2.50;;;12.30;55.20;;;;;;6277677;22;20423;-73
2023/12/09 12:17:25;;;;;;;3.43;2.57;;;12.30;55.30;;;;;;6277468;22;20431;-74
2023/12/09 12:19:52;;;;;;;34.70;15.00;;;12.30;55.90;;;;;;6277517;22;20463;-73
2023/12/09 12:22:20;;;;;;;6.83;3.27;;;12.30;55.90;;;;;;6277293;22;20445;-73
2023/12/09 12:24:47;;;;;;;6.13;3.20;;;12.30;55.30;;;;;;6277416;22;20768;-73
2023/12/09 12:27:14;;;;;;;5.00;2.63;;;12.40;55.40;;;;;;6277632;22;20435;-74
2023/12/09 12:29:42;;;;;;;3.13;2.13;;;12.40;54.30;;;;;;6277361;22;20471;-74
2023/12/09 12:32:12;;;;;;;3.70;2.47;;;12.50;53.00;;;;;;6277851;22;20467;-74
2023/12/09 12:34:45;;;;;;;5.80;2.60;;;12.40;52.30;;;;;;6277786;22;20450;-73
2023/12/09 12:37:12;;;;;;;4.03;2.20;;;12.10;52.70;;;;;;6277275;22;20392;-73
2023/12/09 12:39:41;;;;;;;3.70;2.40;;;11.80;53.30;;;;;;6277755;22;20756;-73
2023/12/09 12:42:08;;;;;;;4.20;2.13;;;11.50;54.10;;;;;;6277694;22;20503;-73
2023/12/09 12:44:36;;;;;;;3.53;2.77;;;11.40;55.20;;;;;;6277295;22;20481;-73
2023/12/09 12:47:03;;;;;;;4.70;2.43;;;11.30;55.90;;;;;;6277345;22;20392;-73
2023/12/09 12:49:37;;;;;;;8.00;2.43;;;11.30;56.50;;;;;;6277182;22;20389;-73
2023/12/09 12:52:04;;;;;;;4.47;2.47;;;11.30;57.20;;;;;;6277448;22;20388;-73
2023/12/09 12:54:32;;;;;;;5.50;3.07;;;11.40;57.30;;;;;;6277405;22;20438;-74